sensor_id;sensor_type;location;lat;lon;timestamp;pressure;altitude;pressure_sealevel;temperature;humidity
21129;BME280;10722;51.910;8.352;2023-07-20T00:02:44;100630.75;;;16.13;100.00
21129;BME280;10722;51.910;8.352;2023-07-20T00:05:29;100630.66;;;16.26;100.00
21129;BME280;10722;51.910;8.352;2023-07-20T00:08:16;100633.31;;;16.20;100.00
21129;BME280;10722;51.910;8.352;2023-07-20T00:11:01;100631.53;;;16.22;100.00
21129;BME280;10722;51.910;8.352;2023-07-20T00:13:47;100621.94;;;16.28;100.00
21129;BME280;10722;51.910;8.352;2023-07-20T00:16:32;100629.00;;;16.12;100.00
21129;BME280;10722;51.910;8.352;2023-07-20T00:19:17;100636.91;;;15.99;100.00
21129;BME280;10722;51.910;8.352;2023-07-20T00:22:03;100629.06;;;16.03;100.00
21129;BME280;10722;51.910;8.352;2023-07-20T00:24:48;100629.94;;;16.02;100.00
21129;BME280;10722;51.910;8.352;2023-07-20T00:27:33;100629.03;;;16.05;100.00
21129;BME280;10722;51.910;8.352;2023-07-20T00:30:19;100631.69;;;16.00;100.00
21129;BME280;10722;51.910;8.352;2023-07-20T00:33:04;100627.34;;;16.01;100.00
21129;BME280;10722;51.910;8.352;2023-07-20T00:35:50;100625.63;;;16.00;100.00
21129;BME280;10722;51.910;8.352;2023-07-20T00:38:36;100617.66;;;16.18;100.00
21129;BME280;10722;51.910;8.352;2023-07-20T00:41:21;100619.41;;;16.18;100.00
21129;BME280;10722;51.910;8.352;2023-07-20T00:44:07;100617.56;;;16.27;100.00
21129;BME280;10722;51.910;8.352;2023-07-20T00:46:52;100622.84;;;16.23;100.00
21129;BME280;10722;51.910;8.352;2023-07-20T00:49:38;100620.28;;;16.15;100.00
21129;BME280;10722;51.910;8.352;2023-07-20T00:52:25;100615.09;;;16.12;100.00
21129;BME280;10722;51.910;8.352;2023-07-20T00:55:12;100617.75;;;16.01;100.00
21129;BME280;10722;51.910;8.352;2023-07-20T00:57:58;100616.91;;;15.98;100.00
21129;BME280;10722;51.910;8.352;2023-07-20T01:00:44;100615.91;;;16.16;100.00
21129;BME280;10722;51.910;8.352;2023-07-20T01:03:30;100616.09;;;15.89;100.00
21129;BME280;10722;51.910;8.352;2023-07-20T01:09:19;100605.59;;;16.00;100.00
21129;BME280;10722;51.910;8.352;2023-07-20T01:12:07;100606.41;;;16.08;100.00
21129;BME280;10722;51.910;8.352;2023-07-20T01:14:54;100607.31;;;16.06;100.00
21129;BME280;10722;51.910;8.352;2023-07-20T01:17:39;100601.19;;;16.08;100.00
21129;BME280;10722;51.910;8.352;2023-07-20T01:20:25;100607.22;;;16.17;100.00
21129;BME280;10722;51.910;8.352;2023-07-20T01:23:31;100605.63;;;15.97;100.00
21129;BME280;10722;51.910;8.352;2023-07-20T01:32:12;100617.16;;;15.49;100.00
21129;BME280;10722;51.910;8.352;2023-07-20T01:35:01;100615.44;;;15.43;100.00
21129;BME280;10722;51.910;8.352;2023-07-20T01:37:47;100626.72;;;15.42;100.00
21129;BME280;10722;51.910;8.352;2023-07-20T01:40:34;100623.25;;;15.40;100.00
21129;BME280;10722;51.910;8.352;2023-07-20T01:43:19;100629.34;;;15.43;100.00
21129;BME280;10722;51.910;8.352;2023-07-20T01:46:05;100618.06;;;15.38;100.00
21129;BME280;10722;51.910;8.352;2023-07-20T01:48:50;100622.44;;;15.33;100.00
21129;BME280;10722;51.910;8.352;2023-07-20T01:51:35;100628.53;;;15.28;100.00
21129;BME280;10722;51.910;8.352;2023-07-20T01:54:20;100628.53;;;15.28;100.00
21129;BME280;10722;51.910;8.352;2023-07-20T01:57:06;100634.63;;;15.19;100.00
21129;BME280;10722;51.910;8.352;2023-07-20T01:59:51;100621.59;;;15.17;100.00
21129;BME280;10722;51.910;8.352;2023-07-20T02:02:36;100632.03;;;15.16;100.00
21129;BME280;10722;51.910;8.352;2023-07-20T02:05:22;100627.69;;;15.13;100.00
21129;BME280;10722;51.910;8.352;2023-07-20T02:08:07;100631.16;;;15.14;100.00
21129;BME280;10722;51.910;8.352;2023-07-20T02:10:53;100632.03;;;15.11;100.00
21129;BME280;10722;51.910;8.352;2023-07-20T02:13:37;100635.53;;;15.04;100.00
21129;BME280;10722;51.910;8.352;2023-07-20T02:16:23;100634.69;;;15.02;100.00
21129;BME280;10722;51.910;8.352;2023-07-20T02:19:09;100634.63;;;15.14;100.00
21129;BME280;10722;51.910;8.352;2023-07-20T02:21:54;100630.31;;;15.07;100.00
21129;BME280;10722;51.910;8.352;2023-07-20T02:24:39;100625.09;;;15.13;100.00
21129;BME280;10722;51.910;8.352;2023-07-20T02:27:25;100625.94;;;15.17;100.00
21129;BME280;10722;51.910;8.352;2023-07-20T02:30:10;100619.91;;;15.10;100.00
21129;BME280;10722;51.910;8.352;2023-07-20T02:32:55;100625.09;;;15.09;100.00
21129;BME280;10722;51.910;8.352;2023-07-20T02:35:41;100627.69;;;15.19;100.00
21129;BME280;10722;51.910;8.352;2023-07-20T02:38:27;100626.78;;;15.25;100.00
21129;BME280;10722;51.910;8.352;2023-07-20T02:41:13;100625.91;;;15.23;100.00
21129;BME280;10722;51.910;8.352;2023-07-20T02:43:58;100630.25;;;15.29;100.00
21129;BME280;10722;51.910;8.352;2023-07-20T02:46:43;100629.44;;;15.20;100.00
21129;BME280;10722;51.910;8.352;2023-07-20T02:49:29;100634.66;;;15.05;100.00
21129;BME280;10722;51.910;8.352;2023-07-20T02:52:14;100639.88;;;15.02;100.00
21129;BME280;10722;51.910;8.352;2023-07-20T02:55:00;100640.75;;;15.04;100.00
21129;BME280;10722;51.910;8.352;2023-07-20T02:57:45;100645.09;;;15.07;100.00
21129;BME280;10722;51.910;8.352;2023-07-20T03:00:30;100648.56;;;15.04;100.00
21129;BME280;10722;51.910;8.352;2023-07-20T03:03:16;100645.06;;;15.08;100.00
21129;BME280;10722;51.910;8.352;2023-07-20T03:06:01;100648.56;;;15.15;100.00
21129;BME280;10722;51.910;8.352;2023-07-20T03:08:46;100640.72;;;15.12;100.00
21129;BME280;10722;51.910;8.352;2023-07-20T03:11:32;100647.69;;;15.08;100.00
21129;BME280;10722;51.910;8.352;2023-07-20T03:14:18;100646.81;;;15.00;100.00
21129;BME280;10722;51.910;8.352;2023-07-20T03:17:03;100651.19;;;14.98;100.00
21129;BME280;10722;51.910;8.352;2023-07-20T03:19:48;100659.00;;;14.96;100.00
21129;BME280;10722;51.910;8.352;2023-07-20T03:22:33;100659.00;;;14.98;100.00
21129;BME280;10722;51.910;8.352;2023-07-20T03:25:19;100672.88;;;15.11;100.00
21129;BME280;10722;51.910;8.352;2023-07-20T03:28:04;100669.41;;;15.04;100.00
21129;BME280;10722;51.910;8.352;2023-07-20T03:30:56;100664.13;;;15.25;100.00
21129;BME280;10722;51.910;8.352;2023-07-20T03:33:42;100665.00;;;15.34;100.00
21129;BME280;10722;51.910;8.352;2023-07-20T03:36:27;100672.81;;;15.34;100.00
21129;BME280;10722;51.910;8.352;2023-07-20T03:39:12;100666.75;;;15.22;100.00
21129;BME280;10722;51.910;8.352;2023-07-20T03:41:58;100668.47;;;15.33;100.00
21129;BME280;10722;51.910;8.352;2023-07-20T03:44:43;100668.50;;;15.14;100.00
21129;BME280;10722;51.910;8.352;2023-07-20T03:47:29;100658.94;;;15.30;100.00
21129;BME280;10722;51.910;8.352;2023-07-20T03:50:14;100662.41;;;15.35;100.00
21129;BME280;10722;51.910;8.352;2023-07-20T03:52:59;100663.25;;;15.39;100.00
21129;BME280;10722;51.910;8.352;2023-07-20T03:55:52;100665.00;;;15.38;100.00
21129;BME280;10722;51.910;8.352;2023-07-20T03:58:37;100657.19;;;15.31;100.00
21129;BME280;10722;51.910;8.352;2023-07-20T04:01:22;100665.88;;;15.25;100.00
21129;BME280;10722;51.910;8.352;2023-07-20T04:04:08;100664.13;;;15.30;100.00
21129;BME280;10722;51.910;8.352;2023-07-20T04:06:53;100660.66;;;15.40;100.00
21129;BME280;10722;51.910;8.352;2023-07-20T04:09:39;100670.13;;;15.54;100.00
21129;BME280;10722;51.910;8.352;2023-07-20T04:12:24;100671.03;;;15.48;100.00
21129;BME280;10722;51.910;8.352;2023-07-20T04:15:09;100672.75;;;15.55;100.00
21129;BME280;10722;51.910;8.352;2023-07-20T04:17:55;100677.09;;;15.58;100.00
21129;BME280;10722;51.910;8.352;2023-07-20T04:20:40;100672.72;;;15.63;100.00
21129;BME280;10722;51.910;8.352;2023-07-20T04:23:26;100677.13;;;15.45;100.00
21129;BME280;10722;51.910;8.352;2023-07-20T04:26:11;100674.50;;;15.42;100.00
21129;BME280;10722;51.910;8.352;2023-07-20T04:28:56;100666.72;;;15.44;100.00
21129;BME280;10722;51.910;8.352;2023-07-20T04:31:42;100671.00;;;15.51;100.00
21129;BME280;10722;51.910;8.352;2023-07-20T04:34:27;100671.03;;;15.53;100.00
21129;BME280;10722;51.910;8.352;2023-07-20T04:37:13;100677.09;;;15.56;100.00
21129;BME280;10722;51.910;8.352;2023-07-20T04:39:58;100673.59;;;15.60;100.00
21129;BME280;10722;51.910;8.352;2023-07-20T04:42:43;100676.22;;;15.60;100.00
21129;BME280;10722;51.910;8.352;2023-07-20T04:45:29;100674.50;;;15.53;100.00
21129;BME280;10722;51.910;8.352;2023-07-20T04:48:16;100680.59;;;15.52;100.00
21129;BME280;10722;51.910;8.352;2023-07-20T04:51:02;100667.53;;;15.51;100.00
21129;BME280;10722;51.910;8.352;2023-07-20T04:53:47;100667.56;;;15.47;100.00
21129;BME280;10722;51.910;8.352;2023-07-20T04:56:32;100665.84;;;15.40;100.00
21129;BME280;10722;51.910;8.352;2023-07-20T04:59:17;100667.63;;;15.32;100.00
21129;BME280;10722;51.910;8.352;2023-07-20T05:02:03;100664.13;;;15.33;100.00
21129;BME280;10722;51.910;8.352;2023-07-20T05:04:49;100660.63;;;15.42;100.00
21129;BME280;10722;51.910;8.352;2023-07-20T05:07:34;100662.38;;;15.34;100.00
21129;BME280;10722;51.910;8.352;2023-07-20T05:10:20;100662.41;;;15.32;100.00
21129;BME280;10722;51.910;8.352;2023-07-20T05:13:05;100665.88;;;15.31;100.00
21129;BME280;10722;51.910;8.352;2023-07-20T05:15:53;100676.28;;;15.37;100.00
21129;BME280;10722;51.910;8.352;2023-07-20T05:18:39;100666.72;;;15.44;100.00
21129;BME280;10722;51.910;8.352;2023-07-20T05:21:24;100657.09;;;15.54;100.00
21129;BME280;10722;51.910;8.352;2023-07-20T05:24:10;100655.38;;;15.48;100.00
21129;BME280;10722;51.910;8.352;2023-07-20T05:26:55;100659.69;;;15.54;100.00
21129;BME280;10722;51.910;8.352;2023-07-20T05:29:47;100664.06;;;15.53;100.00
21129;BME280;10722;51.910;8.352;2023-07-20T05:32:33;100666.72;;;15.41;100.00
21129;BME280;10722;51.910;8.352;2023-07-20T05:35:18;100666.69;;;15.52;100.00
21129;BME280;10722;51.910;8.352;2023-07-20T05:38:03;100684.03;;;15.59;100.00
21129;BME280;10722;51.910;8.352;2023-07-20T05:40:49;100679.69;;;15.72;100.00
21129;BME280;10722;51.910;8.352;2023-07-20T05:43:35;100685.78;;;15.63;100.00
21129;BME280;10722;51.910;8.352;2023-07-20T05:46:20;100676.19;;;15.68;100.00
21129;BME280;10722;51.910;8.352;2023-07-20T05:49:06;100682.28;;;15.62;100.00
21129;BME280;10722;51.910;8.352;2023-07-20T05:51:52;100679.63;;;15.81;100.00
21129;BME280;10722;51.910;8.352;2023-07-20T05:54:37;100677.00;;;15.79;100.00
21129;BME280;10722;51.910;8.352;2023-07-20T05:57:22;100691.75;;;15.94;100.00
21129;BME280;10722;51.910;8.352;2023-07-20T06:00:08;100689.97;;;15.98;100.00
21129;BME280;10722;51.910;8.352;2023-07-20T06:02:53;100681.31;;;15.88;100.00
21129;BME280;10722;51.910;8.352;2023-07-20T06:05:39;100684.75;;;15.98;100.00
21129;BME280;10722;51.910;8.352;2023-07-20T06:08:24;100679.59;;;15.91;100.00
21129;BME280;10722;51.910;8.352;2023-07-20T06:11:10;100682.94;;;16.13;100.00
21129;BME280;10722;51.910;8.352;2023-07-20T06:13:55;100675.00;;;16.29;100.00
21129;BME280;10722;51.910;8.352;2023-07-20T06:16:41;100688.75;;;16.52;100.00
21129;BME280;10722;51.910;8.352;2023-07-20T06:19:26;100684.31;;;16.65;100.00
21129;BME280;10722;51.910;8.352;2023-07-20T06:22:11;100674.66;;;16.73;100.00
21129;BME280;10722;51.910;8.352;2023-07-20T06:24:57;100672.03;;;16.78;100.00
21129;BME280;10722;51.910;8.352;2023-07-20T06:27:43;100663.38;;;16.68;100.00
21129;BME280;10722;51.910;8.352;2023-07-20T06:30:28;100665.09;;;16.77;100.00
21129;BME280;10722;51.910;8.352;2023-07-20T06:33:13;100674.63;;;16.75;100.00
21129;BME280;10722;51.910;8.352;2023-07-20T06:35:59;100685.09;;;16.78;100.00
21129;BME280;10722;51.910;8.352;2023-07-20T06:38:44;100671.09;;;16.85;100.00
21129;BME280;10722;51.910;8.352;2023-07-20T06:41:49;100663.34;;;16.76;100.00
21129;BME280;10722;51.910;8.352;2023-07-20T06:44:39;100667.69;;;16.77;100.00
21129;BME280;10722;51.910;8.352;2023-07-20T06:47:24;100662.44;;;16.82;100.00
21129;BME280;10722;51.910;8.352;2023-07-20T06:50:10;100666.69;;;16.92;100.00
21129;BME280;10722;51.910;8.352;2023-07-20T06:53:01;100684.06;;;16.97;100.00
21129;BME280;10722;51.910;8.352;2023-07-20T06:55:47;100678.63;;;17.19;100.00
21129;BME280;10722;51.910;8.352;2023-07-20T06:58:33;100669.91;;;17.18;100.00
21129;BME280;10722;51.910;8.352;2023-07-20T07:01:18;100674.81;;;17.49;100.00
21129;BME280;10722;51.910;8.352;2023-07-20T07:04:04;100669.66;;;17.43;100.00
21129;BME280;10722;51.910;8.352;2023-07-20T07:06:49;100665.28;;;17.43;100.00
21129;BME280;10722;51.910;8.352;2023-07-20T07:09:35;100663.84;;;17.18;100.00
21129;BME280;10722;51.910;8.352;2023-07-20T07:12:22;100681.06;;;17.34;100.00
21129;BME280;10722;51.910;8.352;2023-07-20T07:15:08;100685.47;;;17.31;100.00
21129;BME280;10722;51.910;8.352;2023-07-20T07:17:54;100674.69;;;17.57;100.00
21129;BME280;10722;51.910;8.352;2023-07-20T07:20:39;100650.16;;;17.67;99.03
21129;BME280;10722;51.910;8.352;2023-07-20T07:23:25;100673.56;;;17.82;98.63
21129;BME280;10722;51.910;8.352;2023-07-20T07:26:10;100655.16;;;17.87;96.07
21129;BME280;10722;51.910;8.352;2023-07-20T07:28:55;100651.22;;;18.20;94.67
21129;BME280;10722;51.910;8.352;2023-07-20T07:31:41;100644.47;;;18.04;92.91
21129;BME280;10722;51.910;8.352;2023-07-20T07:34:26;100655.50;;;18.24;93.36
21129;BME280;10722;51.910;8.352;2023-07-20T07:37:12;100654.28;;;18.47;92.30
21129;BME280;10722;51.910;8.352;2023-07-20T07:39:57;100639.28;;;18.55;90.42
21129;BME280;10722;51.910;8.352;2023-07-20T07:42:42;100631.47;;;18.53;88.69
21129;BME280;10722;51.910;8.352;2023-07-20T07:45:28;100655.13;;;19.01;89.57
21129;BME280;10722;51.910;8.352;2023-07-20T07:48:13;100564.75;;;18.76;83.44
21129;BME280;10722;51.910;8.352;2023-07-20T07:50:58;100561.41;;;19.13;82.50
21129;BME280;10722;51.910;8.352;2023-07-20T07:53:45;100613.69;;;19.20;84.02
21129;BME280;10722;51.910;8.352;2023-07-20T07:56:30;100622.16;;;19.35;83.55
21129;BME280;10722;51.910;8.352;2023-07-20T07:59:16;100599.44;;;19.76;81.17
21129;BME280;10722;51.910;8.352;2023-07-20T08:02:02;100517.19;;;19.77;76.85
21129;BME280;10722;51.910;8.352;2023-07-20T08:04:48;100492.09;;;19.63;74.20
21129;BME280;10722;51.910;8.352;2023-07-20T08:07:33;100482.47;;;19.65;72.99
21129;BME280;10722;51.910;8.352;2023-07-20T08:10:18;100549.72;;;19.69;75.72
21129;BME280;10722;51.910;8.352;2023-07-20T08:13:05;100514.22;;;19.52;73.68
21129;BME280;10722;51.910;8.352;2023-07-20T08:15:51;100550.34;;;20.17;73.85
21129;BME280;10722;51.910;8.352;2023-07-20T08:18:36;100516.66;;;20.32;71.83
21129;BME280;10722;51.910;8.352;2023-07-20T08:21:22;100477.69;;;20.15;69.73
21129;BME280;10722;51.910;8.352;2023-07-20T08:24:07;100503.94;;;20.15;70.76
21129;BME280;10722;51.910;8.352;2023-07-20T08:26:53;100542.03;;;19.98;70.75
21129;BME280;10722;51.910;8.352;2023-07-20T08:29:38;100568.94;;;20.43;70.71
21129;BME280;10722;51.910;8.352;2023-07-20T08:32:24;100557.72;;;20.71;70.06
21129;BME280;10722;51.910;8.352;2023-07-20T08:35:09;100570.50;;;20.85;69.95
21129;BME280;10722;51.910;8.352;2023-07-20T08:37:54;100591.78;;;20.75;70.13
21129;BME280;10722;51.910;8.352;2023-07-20T08:40:43;100597.41;;;21.25;70.37
21129;BME280;10722;51.910;8.352;2023-07-20T08:43:30;100535.41;;;19.83;68.49
21129;BME280;10722;51.910;8.352;2023-07-20T08:46:16;100652.66;;;18.40;74.85
21129;BME280;10722;51.910;8.352;2023-07-20T08:49:02;100700.16;;;18.75;77.25
21129;BME280;10722;51.910;8.352;2023-07-20T08:51:49;100685.91;;;19.37;76.54
21129;BME280;10722;51.910;8.352;2023-07-20T08:54:36;100607.31;;;19.76;71.84
21129;BME280;10722;51.910;8.352;2023-07-20T08:57:22;100571.16;;;19.88;70.38
21129;BME280;10722;51.910;8.352;2023-07-20T09:00:09;100593.88;;;20.63;69.73
21129;BME280;10722;51.910;8.352;2023-07-20T09:02:54;100581.03;;;21.16;68.31
21129;BME280;10722;51.910;8.352;2023-07-20T09:05:40;100509.72;;;21.55;64.37
21129;BME280;10722;51.910;8.352;2023-07-20T09:08:26;100507.63;;;20.43;64.59
21129;BME280;10722;51.910;8.352;2023-07-20T09:11:12;100573.59;;;20.99;65.85
21129;BME280;10722;51.910;8.352;2023-07-20T09:14:07;100580.47;;;20.72;65.44
21129;BME280;10722;51.910;8.352;2023-07-20T09:16:54;100527.38;;;20.59;63.16
21129;BME280;10722;51.910;8.352;2023-07-20T09:19:39;100550.94;;;20.62;63.59
21129;BME280;10722;51.910;8.352;2023-07-20T09:22:31;100578.03;;;20.97;63.99
21129;BME280;10722;51.910;8.352;2023-07-20T09:25:17;100522.81;;;20.97;61.25
21129;BME280;10722;51.910;8.352;2023-07-20T09:28:04;100525.41;;;21.28;60.63
21129;BME280;10722;51.910;8.352;2023-07-20T09:30:50;100531.34;;;21.64;59.67
21129;BME280;10722;51.910;8.352;2023-07-20T09:33:38;100572.03;;;22.10;60.98
21129;BME280;10722;51.910;8.352;2023-07-20T09:36:44;100560.69;;;21.52;60.85
21129;BME280;10722;51.910;8.352;2023-07-20T09:39:42;100585.06;;;20.96;62.14
21129;BME280;10722;51.910;8.352;2023-07-20T09:42:47;100589.28;;;20.69;62.57
21129;BME280;10722;51.910;8.352;2023-07-20T09:45:57;100602.34;;;21.36;62.32
21129;BME280;10722;51.910;8.352;2023-07-20T09:48:54;100564.13;;;21.23;61.00
21129;BME280;10722;51.910;8.352;2023-07-20T09:51:43;100600.75;;;21.62;61.52
21129;BME280;10722;51.910;8.352;2023-07-20T09:54:29;100578.16;;;22.39;59.62
21129;BME280;10722;51.910;8.352;2023-07-20T09:57:15;100555.88;;;22.73;57.83
21129;BME280;10722;51.910;8.352;2023-07-20T10:00:04;100586.28;;;22.83;59.07
21129;BME280;10722;51.910;8.352;2023-07-20T10:02:54;100487.44;;;22.70;54.63
21129;BME280;10722;51.910;8.352;2023-07-20T10:05:43;100500.75;;;22.42;54.42
21129;BME280;10722;51.910;8.352;2023-07-20T10:08:35;100569.28;;;22.42;57.45
21129;BME280;10722;51.910;8.352;2023-07-20T10:11:31;100495.38;;;22.45;53.64
21129;BME280;10722;51.910;8.352;2023-07-20T10:14:20;100529.72;;;22.15;55.74
21129;BME280;10722;51.910;8.352;2023-07-20T10:17:06;100571.47;;;22.54;57.04
21129;BME280;10722;51.910;8.352;2023-07-20T10:19:54;100542.16;;;20.94;57.68
21129;BME280;10722;51.910;8.352;2023-07-20T10:22:41;100644.06;;;21.19;61.19
21129;BME280;10722;51.910;8.352;2023-07-20T10:25:26;100599.78;;;21.35;59.44
21129;BME280;10722;51.910;8.352;2023-07-20T10:28:13;100608.13;;;21.79;59.72
21129;BME280;10722;51.910;8.352;2023-07-20T10:30:58;100529.16;;;21.51;56.13
21129;BME280;10722;51.910;8.352;2023-07-20T10:33:44;100545.25;;;20.79;57.65
21129;BME280;10722;51.910;8.352;2023-07-20T10:36:30;100572.28;;;21.46;58.21
21129;BME280;10722;51.910;8.352;2023-07-20T10:39:27;100603.38;;;21.01;60.53
21129;BME280;10722;51.910;8.352;2023-07-20T10:42:13;100545.00;;;20.20;58.21
21129;BME280;10722;51.910;8.352;2023-07-20T10:45:00;100601.84;;;21.23;59.35
21129;BME280;10722;51.910;8.352;2023-07-20T10:47:46;100586.88;;;21.85;58.74
21129;BME280;10722;51.910;8.352;2023-07-20T10:50:35;100554.25;;;19.99;58.29
21129;BME280;10722;51.910;8.352;2023-07-20T10:53:21;100610.78;;;19.34;60.97
21129;BME280;10722;51.910;8.352;2023-07-20T10:56:20;100659.94;;;20.47;62.11
21129;BME280;10722;51.910;8.352;2023-07-20T10:59:35;100602.25;;;21.41;58.35
21129;BME280;10722;51.910;8.352;2023-07-20T11:02:24;100604.09;;;22.76;56.84
21129;BME280;10722;51.910;8.352;2023-07-20T11:05:32;100552.00;;;22.58;55.12
21129;BME280;10722;51.910;8.352;2023-07-20T11:08:38;100597.56;;;22.08;57.59
21129;BME280;10722;51.910;8.352;2023-07-20T11:11:31;100583.44;;;22.11;56.29
21129;BME280;10722;51.910;8.352;2023-07-20T11:14:22;100584.19;;;21.88;57.14
21129;BME280;10722;51.910;8.352;2023-07-20T11:17:12;100641.16;;;22.19;59.55
21129;BME280;10722;51.910;8.352;2023-07-20T11:20:02;100603.97;;;23.06;57.47
21129;BME280;10722;51.910;8.352;2023-07-20T11:22:50;100564.13;;;22.10;55.80
21129;BME280;10722;51.910;8.352;2023-07-20T11:25:39;100573.81;;;20.23;58.23
21129;BME280;10722;51.910;8.352;2023-07-20T11:28:25;100602.59;;;19.91;60.27
21129;BME280;10722;51.910;8.352;2023-07-20T11:31:13;100628.75;;;20.32;61.24
21129;BME280;10722;51.910;8.352;2023-07-20T11:33:59;100571.03;;;20.29;58.17
21129;BME280;10722;51.910;8.352;2023-07-20T11:36:57;100572.22;;;20.51;57.38
21129;BME280;10722;51.910;8.352;2023-07-20T11:39:45;100535.66;;;20.76;55.56
21129;BME280;10722;51.910;8.352;2023-07-20T11:42:32;100584.31;;;20.93;58.55
21129;BME280;10722;51.910;8.352;2023-07-20T11:45:21;100601.13;;;21.49;58.29
21129;BME280;10722;51.910;8.352;2023-07-20T11:48:07;100577.97;;;21.61;57.03
21129;BME280;10722;51.910;8.352;2023-07-20T11:50:52;100530.91;;;21.78;55.20
21129;BME280;10722;51.910;8.352;2023-07-20T11:53:38;100583.72;;;22.02;57.36
21129;BME280;10722;51.910;8.352;2023-07-20T11:56:24;100548.47;;;22.59;55.02
21129;BME280;10722;51.910;8.352;2023-07-20T11:59:10;100533.66;;;21.47;55.09
21129;BME280;10722;51.910;8.352;2023-07-20T12:01:55;100533.50;;;21.22;55.12
21129;BME280;10722;51.910;8.352;2023-07-20T12:04:41;100566.53;;;21.62;56.78
21129;BME280;10722;51.910;8.352;2023-07-20T12:07:27;100546.63;;;22.36;55.92
21129;BME280;10722;51.910;8.352;2023-07-20T12:10:13;100513.94;;;22.42;54.22
21129;BME280;10722;51.910;8.352;2023-07-20T12:13:02;100542.47;;;22.54;55.66
21129;BME280;10722;51.910;8.352;2023-07-20T12:15:48;100484.03;;;22.16;52.39
21129;BME280;10722;51.910;8.352;2023-07-20T12:18:37;100480.88;;;22.31;52.42
21129;BME280;10722;51.910;8.352;2023-07-20T12:21:22;100508.44;;;23.20;53.09
21129;BME280;10722;51.910;8.352;2023-07-20T12:24:08;100479.44;;;22.96;52.13
21129;BME280;10722;51.910;8.352;2023-07-20T12:26:56;100473.50;;;22.16;52.45
21129;BME280;10722;51.910;8.352;2023-07-20T12:29:41;100506.00;;;21.32;54.72
21129;BME280;10722;51.910;8.352;2023-07-20T12:32:27;100521.63;;;22.48;53.85
21129;BME280;10722;51.910;8.352;2023-07-20T12:35:12;100524.91;;;23.26;53.49
21129;BME280;10722;51.910;8.352;2023-07-20T12:37:58;100477.09;;;21.60;53.24
21129;BME280;10722;51.910;8.352;2023-07-20T12:40:43;100466.34;;;21.09;53.30
21129;BME280;10722;51.910;8.352;2023-07-20T12:43:29;100514.97;;;21.25;54.87
21129;BME280;10722;51.910;8.352;2023-07-20T12:46:15;100502.19;;;21.70;54.65
21129;BME280;10722;51.910;8.352;2023-07-20T12:49:00;100506.25;;;23.31;52.68
21129;BME280;10722;51.910;8.352;2023-07-20T12:51:46;100471.56;;;24.27;50.32
21129;BME280;10722;51.910;8.352;2023-07-20T12:54:31;100400.44;;;22.92;49.07
21129;BME280;10722;51.910;8.352;2023-07-20T12:57:17;100438.06;;;22.50;51.33
21129;BME280;10722;51.910;8.352;2023-07-20T13:00:08;100451.22;;;23.44;50.78
21129;BME280;10722;51.910;8.352;2023-07-20T13:02:54;100391.34;;;23.44;47.95
21129;BME280;10722;51.910;8.352;2023-07-20T13:05:42;100445.03;;;22.76;51.55
21129;BME280;10722;51.910;8.352;2023-07-20T13:08:30;100408.88;;;23.67;48.52
21129;BME280;10722;51.910;8.352;2023-07-20T13:11:15;100398.63;;;24.02;47.71
21129;BME280;10722;51.910;8.352;2023-07-20T13:14:00;100414.56;;;22.91;49.30
21129;BME280;10722;51.910;8.352;2023-07-20T13:16:45;100409.13;;;22.72;49.28
21129;BME280;10722;51.910;8.352;2023-07-20T13:19:31;100384.47;;;22.26;48.72
21129;BME280;10722;51.910;8.352;2023-07-20T13:22:16;100436.53;;;22.44;50.58
21129;BME280;10722;51.910;8.352;2023-07-20T13:25:02;100426.03;;;22.66;49.89
21129;BME280;10722;51.910;8.352;2023-07-20T13:27:48;100436.53;;;23.15;49.21
21129;BME280;10722;51.910;8.352;2023-07-20T13:30:33;100426.91;;;23.80;48.52
21129;BME280;10722;51.910;8.352;2023-07-20T13:33:18;100433.81;;;23.60;49.36
21129;BME280;10722;51.910;8.352;2023-07-20T13:36:05;100423.72;;;23.71;48.80
21129;BME280;10722;51.910;8.352;2023-07-20T13:38:54;100423.13;;;23.85;48.30
21129;BME280;10722;51.910;8.352;2023-07-20T13:41:39;100404.84;;;24.22;47.40
21129;BME280;10722;51.910;8.352;2023-07-20T13:44:24;100442.34;;;23.89;49.65
21129;BME280;10722;51.910;8.352;2023-07-20T13:47:09;100447.44;;;23.93;50.02
21129;BME280;10722;51.910;8.352;2023-07-20T13:49:57;100402.91;;;23.84;47.86
21129;BME280;10722;51.910;8.352;2023-07-20T13:52:45;100431.97;;;23.84;49.53
21129;BME280;10722;51.910;8.352;2023-07-20T13:55:31;100432.91;;;24.04;49.43
21129;BME280;10722;51.910;8.352;2023-07-20T13:58:19;100459.97;;;23.66;51.20
21129;BME280;10722;51.910;8.352;2023-07-20T14:01:04;100418.53;;;23.68;48.94
21129;BME280;10722;51.910;8.352;2023-07-20T14:03:49;100417.84;;;23.85;48.54
21129;BME280;10722;51.910;8.352;2023-07-20T14:06:38;100427.72;;;23.14;49.68
21129;BME280;10722;51.910;8.352;2023-07-20T14:09:24;100412.03;;;22.41;49.41
21129;BME280;10722;51.910;8.352;2023-07-20T14:12:09;100416.84;;;21.78;51.01
21129;BME280;10722;51.910;8.352;2023-07-20T14:14:54;100391.66;;;22.21;48.86
21129;BME280;10722;51.910;8.352;2023-07-20T14:17:40;100374.47;;;21.85;48.92
21129;BME280;10722;51.910;8.352;2023-07-20T14:20:25;100450.56;;;22.45;52.27
21129;BME280;10722;51.910;8.352;2023-07-20T14:23:11;100407.75;;;22.62;50.13
21129;BME280;10722;51.910;8.352;2023-07-20T14:25:56;100418.88;;;22.70;50.06
21129;BME280;10722;51.910;8.352;2023-07-20T14:28:44;100438.25;;;22.69;51.40
21129;BME280;10722;51.910;8.352;2023-07-20T14:31:29;100434.47;;;22.76;50.96
21129;BME280;10722;51.910;8.352;2023-07-20T14:34:14;100430.88;;;23.02;50.28
21129;BME280;10722;51.910;8.352;2023-07-20T14:36:59;100444.47;;;22.66;51.65